sensor_id;sensor_type;location;lat;lon;timestamp;temperature;humidity
3334;DHT22;1679;50.392;8.008;2024-03-22T00:00:55;8.80;99.90
3334;DHT22;1679;50.392;8.008;2024-03-22T00:03:20;8.80;99.90
3334;DHT22;1679;50.392;8.008;2024-03-22T00:05:46;8.80;99.90
3334;DHT22;1679;50.392;8.008;2024-03-22T00:08:11;8.80;99.90
3334;DHT22;1679;50.392;8.008;2024-03-22T00:10:37;8.70;99.90
3334;DHT22;1679;50.392;8.008;2024-03-22T00:13:03;8.70;99.90
3334;DHT22;1679;50.392;8.008;2024-03-22T00:15:30;8.60;99.90
3334;DHT22;1679;50.392;8.008;2024-03-22T00:17:57;8.60;99.90
3334;DHT22;1679;50.392;8.008;2024-03-22T00:20:22;8.50;99.90
3334;DHT22;1679;50.392;8.008;2024-03-22T00:22:48;8.40;99.90
3334;DHT22;1679;50.392;8.008;2024-03-22T00:25:14;8.40;99.90
3334;DHT22;1679;50.392;8.008;2024-03-22T00:27:40;8.40;99.90
3334;DHT22;1679;50.392;8.008;2024-03-22T00:30:06;8.40;99.90
3334;DHT22;1679;50.392;8.008;2024-03-22T00:32:32;8.30;99.90
3334;DHT22;1679;50.392;8.008;2024-03-22T00:34:57;8.20;99.90
3334;DHT22;1679;50.392;8.008;2024-03-22T00:37:23;8.20;99.90
3334;DHT22;1679;50.392;8.008;2024-03-22T00:39:50;8.10;99.90
3334;DHT22;1679;50.392;8.008;2024-03-22T00:42:15;8.00;99.90
3334;DHT22;1679;50.392;8.008;2024-03-22T00:44:41;8.00;99.90
3334;DHT22;1679;50.392;8.008;2024-03-22T00:47:06;8.00;99.90
3334;DHT22;1679;50.392;8.008;2024-03-22T00:49:32;8.00;99.90
3334;DHT22;1679;50.392;8.008;2024-03-22T00:51:57;8.00;99.90
3334;DHT22;1679;50.392;8.008;2024-03-22T00:54:23;7.90;99.90
3334;DHT22;1679;50.392;8.008;2024-03-22T00:56:49;7.90;99.90
3334;DHT22;1679;50.392;8.008;2024-03-22T00:59:15;7.90;99.90
3334;DHT22;1679;50.392;8.008;2024-03-22T01:01:42;7.90;99.90
3334;DHT22;1679;50.392;8.008;2024-03-22T01:04:09;7.90;99.90
3334;DHT22;1679;50.392;8.008;2024-03-22T01:06:35;7.80;99.90
3334;DHT22;1679;50.392;8.008;2024-03-22T01:09:00;7.80;99.90
3334;DHT22;1679;50.392;8.008;2024-03-22T01:11:26;7.80;99.90
3334;DHT22;1679;50.392;8.008;2024-03-22T01:13:53;7.70;99.90
3334;DHT22;1679;50.392;8.008;2024-03-22T01:16:18;7.70;99.90
3334;DHT22;1679;50.392;8.008;2024-03-22T01:18:44;7.60;99.90
3334;DHT22;1679;50.392;8.008;2024-03-22T01:21:09;7.60;99.90
3334;DHT22;1679;50.392;8.008;2024-03-22T01:23:36;7.50;99.90
3334;DHT22;1679;50.392;8.008;2024-03-22T01:26:02;7.50;99.90
3334;DHT22;1679;50.392;8.008;2024-03-22T01:28:27;7.50;99.90
3334;DHT22;1679;50.392;8.008;2024-03-22T01:30:54;7.40;99.90
3334;DHT22;1679;50.392;8.008;2024-03-22T01:33:20;7.40;99.90
3334;DHT22;1679;50.392;8.008;2024-03-22T01:35:45;7.40;99.90
3334;DHT22;1679;50.392;8.008;2024-03-22T01:38:11;7.40;99.90
3334;DHT22;1679;50.392;8.008;2024-03-22T01:40:36;7.40;99.90
3334;DHT22;1679;50.392;8.008;2024-03-22T01:43:02;7.30;99.90
3334;DHT22;1679;50.392;8.008;2024-03-22T01:45:32;7.40;99.90
3334;DHT22;1679;50.392;8.008;2024-03-22T01:48:00;7.60;99.90
3334;DHT22;1679;50.392;8.008;2024-03-22T01:50:27;7.60;99.90
3334;DHT22;1679;50.392;8.008;2024-03-22T01:52:53;7.60;99.90
3334;DHT22;1679;50.392;8.008;2024-03-22T01:55:18;7.60;99.90
3334;DHT22;1679;50.392;8.008;2024-03-22T01:57:44;7.50;99.90
3334;DHT22;1679;50.392;8.008;2024-03-22T02:00:10;7.40;99.90
3334;DHT22;1679;50.392;8.008;2024-03-22T02:02:36;7.40;99.90
3334;DHT22;1679;50.392;8.008;2024-03-22T02:05:18;7.40;99.90
3334;DHT22;1679;50.392;8.008;2024-03-22T02:07:47;7.40;99.90
3334;DHT22;1679;50.392;8.008;2024-03-22T02:10:15;7.40;99.90
3334;DHT22;1679;50.392;8.008;2024-03-22T02:12:41;7.40;99.90
3334;DHT22;1679;50.392;8.008;2024-03-22T02:15:07;7.30;99.90
3334;DHT22;1679;50.392;8.008;2024-03-22T02:17:34;7.30;99.90
3334;DHT22;1679;50.392;8.008;2024-03-22T02:20:00;7.30;99.90
3334;DHT22;1679;50.392;8.008;2024-03-22T02:22:27;7.30;99.90
3334;DHT22;1679;50.392;8.008;2024-03-22T02:24:53;7.30;99.90
3334;DHT22;1679;50.392;8.008;2024-03-22T02:27:18;7.20;99.90
3334;DHT22;1679;50.392;8.008;2024-03-22T02:29:44;7.20;99.90
3334;DHT22;1679;50.392;8.008;2024-03-22T02:32:11;7.20;99.90
3334;DHT22;1679;50.392;8.008;2024-03-22T02:34:37;7.20;99.90
3334;DHT22;1679;50.392;8.008;2024-03-22T02:37:03;7.10;99.90
3334;DHT22;1679;50.392;8.008;2024-03-22T02:39:28;7.10;99.90
3334;DHT22;1679;50.392;8.008;2024-03-22T02:41:54;7.10;99.90
3334;DHT22;1679;50.392;8.008;2024-03-22T02:44:20;7.00;99.90
3334;DHT22;1679;50.392;8.008;2024-03-22T02:46:47;7.00;99.90
3334;DHT22;1679;50.392;8.008;2024-03-22T02:49:13;6.90;99.90
3334;DHT22;1679;50.392;8.008;2024-03-22T02:51:40;6.90;99.90
3334;DHT22;1679;50.392;8.008;2024-03-22T02:54:07;6.90;99.90
3334;DHT22;1679;50.392;8.008;2024-03-22T02:56:34;6.90;99.90
3334;DHT22;1679;50.392;8.008;2024-03-22T02:58:59;6.90;99.90
3334;DHT22;1679;50.392;8.008;2024-03-22T03:01:25;6.90;99.90
3334;DHT22;1679;50.392;8.008;2024-03-22T03:03:50;7.00;99.90
3334;DHT22;1679;50.392;8.008;2024-03-22T03:06:16;7.00;99.90
3334;DHT22;1679;50.392;8.008;2024-03-22T03:08:43;7.00;99.90
3334;DHT22;1679;50.392;8.008;2024-03-22T03:11:10;7.00;99.90
3334;DHT22;1679;50.392;8.008;2024-03-22T03:13:36;7.00;99.90
3334;DHT22;1679;50.392;8.008;2024-03-22T03:16:02;7.00;99.90
3334;DHT22;1679;50.392;8.008;2024-03-22T03:18:28;7.00;99.90
3334;DHT22;1679;50.392;8.008;2024-03-22T03:20:54;7.00;99.90
3334;DHT22;1679;50.392;8.008;2024-03-22T03:23:19;6.90;99.90
3334;DHT22;1679;50.392;8.008;2024-03-22T03:25:45;6.90;99.90
3334;DHT22;1679;50.392;8.008;2024-03-22T03:28:11;6.90;99.90
3334;DHT22;1679;50.392;8.008;2024-03-22T03:30:38;6.90;99.90
3334;DHT22;1679;50.392;8.008;2024-03-22T03:33:04;6.90;99.90
3334;DHT22;1679;50.392;8.008;2024-03-22T03:35:29;6.90;99.90
3334;DHT22;1679;50.392;8.008;2024-03-22T03:37:55;6.80;99.90
3334;DHT22;1679;50.392;8.008;2024-03-22T03:40:21;6.80;99.90
3334;DHT22;1679;50.392;8.008;2024-03-22T03:42:50;6.80;99.90
3334;DHT22;1679;50.392;8.008;2024-03-22T03:45:15;6.80;99.90
3334;DHT22;1679;50.392;8.008;2024-03-22T03:47:41;6.70;99.90
3334;DHT22;1679;50.392;8.008;2024-03-22T03:50:07;6.80;99.90
3334;DHT22;1679;50.392;8.008;2024-03-22T03:52:35;6.80;99.90
3334;DHT22;1679;50.392;8.008;2024-03-22T03:55:00;6.70;99.90
3334;DHT22;1679;50.392;8.008;2024-03-22T03:57:26;6.80;99.90
3334;DHT22;1679;50.392;8.008;2024-03-22T03:59:52;6.70;99.90
3334;DHT22;1679;50.392;8.008;2024-03-22T04:02:17;6.80;99.90
3334;DHT22;1679;50.392;8.008;2024-03-22T04:04:43;6.80;99.90
3334;DHT22;1679;50.392;8.008;2024-03-22T04:07:08;6.90;99.90
3334;DHT22;1679;50.392;8.008;2024-03-22T04:09:34;6.90;99.90
3334;DHT22;1679;50.392;8.008;2024-03-22T04:12:00;6.90;99.90
3334;DHT22;1679;50.392;8.008;2024-03-22T04:14:26;7.00;99.90
3334;DHT22;1679;50.392;8.008;2024-03-22T04:16:51;7.00;99.90
3334;DHT22;1679;50.392;8.008;2024-03-22T04:19:20;7.10;99.90
3334;DHT22;1679;50.392;8.008;2024-03-22T04:21:45;7.10;99.90
3334;DHT22;1679;50.392;8.008;2024-03-22T04:24:11;7.20;99.90
3334;DHT22;1679;50.392;8.008;2024-03-22T04:26:38;7.10;99.90
3334;DHT22;1679;50.392;8.008;2024-03-22T04:29:05;7.20;99.90
3334;DHT22;1679;50.392;8.008;2024-03-22T04:31:32;7.20;99.90
3334;DHT22;1679;50.392;8.008;2024-03-22T04:33:57;7.20;99.90
3334;DHT22;1679;50.392;8.008;2024-03-22T04:36:24;7.20;99.90
3334;DHT22;1679;50.392;8.008;2024-03-22T04:38:50;7.20;99.90
3334;DHT22;1679;50.392;8.008;2024-03-22T04:41:15;7.30;99.90
3334;DHT22;1679;50.392;8.008;2024-03-22T04:43:42;7.30;99.90
3334;DHT22;1679;50.392;8.008;2024-03-22T04:46:08;7.30;99.90
3334;DHT22;1679;50.392;8.008;2024-03-22T04:48:33;7.40;99.90
3334;DHT22;1679;50.392;8.008;2024-03-22T04:50:59;7.40;99.90
3334;DHT22;1679;50.392;8.008;2024-03-22T04:53:26;7.40;99.90
3334;DHT22;1679;50.392;8.008;2024-03-22T04:55:52;7.40;99.90
3334;DHT22;1679;50.392;8.008;2024-03-22T04:58:19;7.40;99.90
3334;DHT22;1679;50.392;8.008;2024-03-22T05:00:45;7.50;99.90
3334;DHT22;1679;50.392;8.008;2024-03-22T05:03:11;7.50;99.90
3334;DHT22;1679;50.392;8.008;2024-03-22T05:05:37;7.50;99.90
3334;DHT22;1679;50.392;8.008;2024-03-22T05:08:04;7.50;99.90
3334;DHT22;1679;50.392;8.008;2024-03-22T05:10:31;7.40;99.90
3334;DHT22;1679;50.392;8.008;2024-03-22T05:12:57;7.40;99.90
3334;DHT22;1679;50.392;8.008;2024-03-22T05:15:23;7.40;99.90
3334;DHT22;1679;50.392;8.008;2024-03-22T05:17:51;7.40;99.90
3334;DHT22;1679;50.392;8.008;2024-03-22T05:20:16;7.40;99.90
3334;DHT22;1679;50.392;8.008;2024-03-22T05:22:43;7.40;99.90
3334;DHT22;1679;50.392;8.008;2024-03-22T05:25:09;7.40;99.90
3334;DHT22;1679;50.392;8.008;2024-03-22T05:27:35;7.50;99.90
3334;DHT22;1679;50.392;8.008;2024-03-22T05:30:01;7.40;99.90
3334;DHT22;1679;50.392;8.008;2024-03-22T05:32:29;7.40;99.90
3334;DHT22;1679;50.392;8.008;2024-03-22T05:34:55;7.40;99.90
3334;DHT22;1679;50.392;8.008;2024-03-22T05:37:20;7.50;99.90
3334;DHT22;1679;50.392;8.008;2024-03-22T05:39:46;7.50;99.90
3334;DHT22;1679;50.392;8.008;2024-03-22T05:42:12;7.50;99.90
3334;DHT22;1679;50.392;8.008;2024-03-22T05:44:37;7.50;99.90
3334;DHT22;1679;50.392;8.008;2024-03-22T05:47:03;7.50;99.90
3334;DHT22;1679;50.392;8.008;2024-03-22T05:49:28;7.60;99.90
3334;DHT22;1679;50.392;8.008;2024-03-22T05:51:55;7.60;99.90
3334;DHT22;1679;50.392;8.008;2024-03-22T05:54:20;7.70;99.90
3334;DHT22;1679;50.392;8.008;2024-03-22T05:56:46;7.70;99.90
3334;DHT22;1679;50.392;8.008;2024-03-22T05:59:12;7.70;99.90
3334;DHT22;1679;50.392;8.008;2024-03-22T06:01:37;7.70;99.90
3334;DHT22;1679;50.392;8.008;2024-03-22T06:04:07;7.70;99.90
3334;DHT22;1679;50.392;8.008;2024-03-22T06:06:37;7.70;99.90
3334;DHT22;1679;50.392;8.008;2024-03-22T06:09:03;7.70;99.90
3334;DHT22;1679;50.392;8.008;2024-03-22T06:11:32;7.70;99.90
3334;DHT22;1679;50.392;8.008;2024-03-22T06:13:57;7.70;99.90
3334;DHT22;1679;50.392;8.008;2024-03-22T06:16:24;7.80;99.90
3334;DHT22;1679;50.392;8.008;2024-03-22T06:18:50;7.70;99.90
3334;DHT22;1679;50.392;8.008;2024-03-22T06:21:15;7.80;99.90
3334;DHT22;1679;50.392;8.008;2024-03-22T06:23:49;7.80;99.90
3334;DHT22;1679;50.392;8.008;2024-03-22T06:26:15;7.80;99.90
3334;DHT22;1679;50.392;8.008;2024-03-22T06:28:41;7.80;99.90
3334;DHT22;1679;50.392;8.008;2024-03-22T06:31:07;7.80;99.90
3334;DHT22;1679;50.392;8.008;2024-03-22T06:33:33;7.80;99.90
3334;DHT22;1679;50.392;8.008;2024-03-22T06:35:59;7.80;99.90
3334;DHT22;1679;50.392;8.008;2024-03-22T06:38:25;7.90;99.90
3334;DHT22;1679;50.392;8.008;2024-03-22T06:40:52;7.90;99.90
3334;DHT22;1679;50.392;8.008;2024-03-22T06:43:17;8.00;99.90
3334;DHT22;1679;50.392;8.008;2024-03-22T06:45:43;8.10;99.90
3334;DHT22;1679;50.392;8.008;2024-03-22T06:48:08;8.10;99.90
3334;DHT22;1679;50.392;8.008;2024-03-22T06:50:34;8.20;99.90
3334;DHT22;1679;50.392;8.008;2024-03-22T06:52:59;8.30;99.90
3334;DHT22;1679;50.392;8.008;2024-03-22T06:55:25;8.30;99.90
3334;DHT22;1679;50.392;8.008;2024-03-22T06:57:50;8.30;99.90
3334;DHT22;1679;50.392;8.008;2024-03-22T07:00:18;8.40;99.90
3334;DHT22;1679;50.392;8.008;2024-03-22T07:02:44;8.40;99.90
3334;DHT22;1679;50.392;8.008;2024-03-22T07:05:10;8.50;99.90
3334;DHT22;1679;50.392;8.008;2024-03-22T07:07:37;8.60;99.90
3334;DHT22;1679;50.392;8.008;2024-03-22T07:10:03;8.70;99.90
3334;DHT22;1679;50.392;8.008;2024-03-22T07:12:31;8.80;99.90
3334;DHT22;1679;50.392;8.008;2024-03-22T07:14:56;8.80;99.90
3334;DHT22;1679;50.392;8.008;2024-03-22T07:17:25;8.90;99.90
3334;DHT22;1679;50.392;8.008;2024-03-22T07:19:51;8.90;99.90
3334;DHT22;1679;50.392;8.008;2024-03-22T07:22:17;8.80;99.90
3334;DHT22;1679;50.392;8.008;2024-03-22T07:24:43;8.90;99.90
3334;DHT22;1679;50.392;8.008;2024-03-22T07:27:09;9.00;99.90
3334;DHT22;1679;50.392;8.008;2024-03-22T07:29:35;9.10;99.90
3334;DHT22;1679;50.392;8.008;2024-03-22T07:32:03;9.10;99.90
3334;DHT22;1679;50.392;8.008;2024-03-22T07:34:29;9.10;99.90
3334;DHT22;1679;50.392;8.008;2024-03-22T07:36:55;9.20;99.90
3334;DHT22;1679;50.392;8.008;2024-03-22T07:39:20;9.20;99.90
3334;DHT22;1679;50.392;8.008;2024-03-22T07:41:46;9.20;99.90
3334;DHT22;1679;50.392;8.008;2024-03-22T07:44:12;9.20;99.90
3334;DHT22;1679;50.392;8.008;2024-03-22T07:46:37;9.20;99.90
3334;DHT22;1679;50.392;8.008;2024-03-22T07:49:03;9.30;99.90
3334;DHT22;1679;50.392;8.008;2024-03-22T07:51:30;9.40;99.90
3334;DHT22;1679;50.392;8.008;2024-03-22T07:53:56;9.60;99.90
3334;DHT22;1679;50.392;8.008;2024-03-22T07:56:22;9.70;99.90
3334;DHT22;1679;50.392;8.008;2024-03-22T07:58:47;10.00;99.90
3334;DHT22;1679;50.392;8.008;2024-03-22T08:01:13;10.30;99.90
3334;DHT22;1679;50.392;8.008;2024-03-22T08:03:39;10.70;99.90
3334;DHT22;1679;50.392;8.008;2024-03-22T08:06:04;11.00;99.90
3334;DHT22;1679;50.392;8.008;2024-03-22T08:08:31;11.50;99.90
3334;DHT22;1679;50.392;8.008;2024-03-22T08:10:58;11.90;99.90
3334;DHT22;1679;50.392;8.008;2024-03-22T08:13:25;12.30;99.90
3334;DHT22;1679;50.392;8.008;2024-03-22T08:15:51;12.50;99.90
3334;DHT22;1679;50.392;8.008;2024-03-22T08:18:16;12.80;99.90
3334;DHT22;1679;50.392;8.008;2024-03-22T08:20:42;13.10;99.90
3334;DHT22;1679;50.392;8.008;2024-03-22T08:23:07;13.40;99.90
3334;DHT22;1679;50.392;8.008;2024-03-22T08:25:35;13.40;99.90
3334;DHT22;1679;50.392;8.008;2024-03-22T08:28:02;13.30;99.90
3334;DHT22;1679;50.392;8.008;2024-03-22T08:30:28;13.20;99.90
3334;DHT22;1679;50.392;8.008;2024-03-22T08:32:53;13.10;99.90
3334;DHT22;1679;50.392;8.008;2024-03-22T08:35:19;12.90;99.90
3334;DHT22;1679;50.392;8.008;2024-03-22T08:37:44;12.90;99.90
3334;DHT22;1679;50.392;8.008;2024-03-22T08:40:12;12.90;99.90
3334;DHT22;1679;50.392;8.008;2024-03-22T08:42:39;12.90;99.90
3334;DHT22;1679;50.392;8.008;2024-03-22T08:45:05;12.90;99.90
3334;DHT22;1679;50.392;8.008;2024-03-22T08:47:31;12.80;99.90
3334;DHT22;1679;50.392;8.008;2024-03-22T08:50:00;12.80;99.90
3334;DHT22;1679;50.392;8.008;2024-03-22T08:52:25;12.90;99.90
3334;DHT22;1679;50.392;8.008;2024-03-22T08:54:57;13.10;99.90
3334;DHT22;1679;50.392;8.008;2024-03-22T08:57:25;13.10;99.90
3334;DHT22;1679;50.392;8.008;2024-03-22T08:59:50;13.30;99.90
3334;DHT22;1679;50.392;8.008;2024-03-22T09:02:17;13.40;99.90
3334;DHT22;1679;50.392;8.008;2024-03-22T09:04:44;13.60;99.90
3334;DHT22;1679;50.392;8.008;2024-03-22T09:07:11;13.90;99.90
3334;DHT22;1679;50.392;8.008;2024-03-22T09:09:36;14.50;99.90
3334;DHT22;1679;50.392;8.008;2024-03-22T09:12:02;15.20;99.90
3334;DHT22;1679;50.392;8.008;2024-03-22T09:14:28;15.70;99.90
3334;DHT22;1679;50.392;8.008;2024-03-22T09:16:53;15.80;99.90
3334;DHT22;1679;50.392;8.008;2024-03-22T09:19:19;15.70;99.90
3334;DHT22;1679;50.392;8.008;2024-03-22T09:21:45;15.60;99.90
3334;DHT22;1679;50.392;8.008;2024-03-22T09:24:10;15.50;99.90
3334;DHT22;1679;50.392;8.008;2024-03-22T09:26:36;15.50;99.90
3334;DHT22;1679;50.392;8.008;2024-03-22T09:29:03;15.30;99.90
3334;DHT22;1679;50.392;8.008;2024-03-22T09:31:30;15.00;99.90
3334;DHT22;1679;50.392;8.008;2024-03-22T09:34:00;14.90;99.90
3334;DHT22;1679;50.392;8.008;2024-03-22T09:36:27;15.00;99.90
3334;DHT22;1679;50.392;8.008;2024-03-22T09:38:55;15.30;99.90
3334;DHT22;1679;50.392;8.008;2024-03-22T09:41:24;15.40;99.90
3334;DHT22;1679;50.392;8.008;2024-03-22T09:43:51;15.60;99.90
3334;DHT22;1679;50.392;8.008;2024-03-22T09:46:20;15.80;99.90
3334;DHT22;1679;50.392;8.008;2024-03-22T09:48:48;15.90;99.90
3334;DHT22;1679;50.392;8.008;2024-03-22T09:51:18;15.90;99.90
3334;DHT22;1679;50.392;8.008;2024-03-22T09:53:46;15.90;99.90
3334;DHT22;1679;50.392;8.008;2024-03-22T09:56:14;16.00;99.90
3334;DHT22;1679;50.392;8.008;2024-03-22T09:58:44;16.20;99.90
3334;DHT22;1679;50.392;8.008;2024-03-22T10:01:10;16.70;99.90
3334;DHT22;1679;50.392;8.008;2024-03-22T10:03:36;16.80;99.90
3334;DHT22;1679;50.392;8.008;2024-03-22T10:06:02;16.70;99.90
3334;DHT22;1679;50.392;8.008;2024-03-22T10:08:28;16.50;99.90
3334;DHT22;1679;50.392;8.008;2024-03-22T10:10:53;16.40;99.90
3334;DHT22;1679;50.392;8.008;2024-03-22T10:13:19;16.30;99.90
3334;DHT22;1679;50.392;8.008;2024-03-22T10:15:47;16.30;99.90
3334;DHT22;1679;50.392;8.008;2024-03-22T10:18:13;16.50;99.90
3334;DHT22;1679;50.392;8.008;2024-03-22T10:20:41;16.90;99.90
3334;DHT22;1679;50.392;8.008;2024-03-22T10:23:08;17.00;99.90
3334;DHT22;1679;50.392;8.008;2024-03-22T10:25:34;16.90;99.90
3334;DHT22;1679;50.392;8.008;2024-03-22T10:28:00;16.90;99.90
3334;DHT22;1679;50.392;8.008;2024-03-22T10:30:26;16.70;99.90
3334;DHT22;1679;50.392;8.008;2024-03-22T10:32:54;16.60;99.90
3334;DHT22;1679;50.392;8.008;2024-03-22T10:35:20;16.40;99.90
3334;DHT22;1679;50.392;8.008;2024-03-22T10:37:46;16.40;99.90
3334;DHT22;1679;50.392;8.008;2024-03-22T10:40:13;16.60;99.90
3334;DHT22;1679;50.392;8.008;2024-03-22T10:42:40;16.80;99.90
3334;DHT22;1679;50.392;8.008;2024-03-22T10:45:09;17.10;99.90
3334;DHT22;1679;50.392;8.008;2024-03-22T10:47:37;17.30;99.90
3334;DHT22;1679;50.392;8.008;2024-03-22T10:50:10;17.50;99.90
3334;DHT22;1679;50.392;8.008;2024-03-22T10:55:04;17.90;99.90
3334;DHT22;1679;50.392;8.008;2024-03-22T10:57:32;17.90;99.90
3334;DHT22;1679;50.392;8.008;2024-03-22T11:00:11;17.70;99.90
3334;DHT22;1679;50.392;8.008;2024-03-22T11:02:37;17.70;99.90
3334;DHT22;1679;50.392;8.008;2024-03-22T11:05:04;17.60;99.90
3334;DHT22;1679;50.392;8.008;2024-03-22T11:07:31;17.70;99.90
3334;DHT22;1679;50.392;8.008;2024-03-22T11:09:58;17.80;99.90
3334;DHT22;1679;50.392;8.008;2024-03-22T11:12:25;17.70;99.90
3334;DHT22;1679;50.392;8.008;2024-03-22T11:14:53;17.70;99.90
3334;DHT22;1679;50.392;8.008;2024-03-22T11:17:19;17.60;99.90
3334;DHT22;1679;50.392;8.008;2024-03-22T11:19:47;17.70;99.90
3334;DHT22;1679;50.392;8.008;2024-03-22T11:22:13;17.80;99.90
3334;DHT22;1679;50.392;8.008;2024-03-22T11:24:39;17.80;99.90
3334;DHT22;1679;50.392;8.008;2024-03-22T11:27:05;17.60;99.90
3334;DHT22;1679;50.392;8.008;2024-03-22T11:29:31;17.70;99.90
3334;DHT22;1679;50.392;8.008;2024-03-22T11:31:56;17.80;99.90
3334;DHT22;1679;50.392;8.008;2024-03-22T11:34:22;17.80;99.90
3334;DHT22;1679;50.392;8.008;2024-03-22T11:36:48;17.90;99.90
3334;DHT22;1679;50.392;8.008;2024-03-22T11:39:16;17.80;99.90
3334;DHT22;1679;50.392;8.008;2024-03-22T11:41:43;17.80;99.90
3334;DHT22;1679;50.392;8.008;2024-03-22T11:44:09;17.70;99.90
3334;DHT22;1679;50.392;8.008;2024-03-22T11:46:35;17.70;99.90
3334;DHT22;1679;50.392;8.008;2024-03-22T11:49:01;17.60;99.90
3334;DHT22;1679;50.392;8.008;2024-03-22T11:51:26;17.60;99.90
3334;DHT22;1679;50.392;8.008;2024-03-22T11:53:52;17.60;99.90
3334;DHT22;1679;50.392;8.008;2024-03-22T11:56:21;17.50;99.90
3334;DHT22;1679;50.392;8.008;2024-03-22T11:58:48;17.40;99.90
3334;DHT22;1679;50.392;8.008;2024-03-22T12:01:16;17.30;99.90
3334;DHT22;1679;50.392;8.008;2024-03-22T12:03:45;17.20;99.90
3334;DHT22;1679;50.392;8.008;2024-03-22T12:06:11;17.20;99.90
3334;DHT22;1679;50.392;8.008;2024-03-22T12:08:38;17.30;99.90
3334;DHT22;1679;50.392;8.008;2024-03-22T12:11:07;17.20;99.90
3334;DHT22;1679;50.392;8.008;2024-03-22T12:13:33;17.20;99.90
3334;DHT22;1679;50.392;8.008;2024-03-22T12:15:58;17.20;99.90
3334;DHT22;1679;50.392;8.008;2024-03-22T12:18:24;17.10;99.90
3334;DHT22;1679;50.392;8.008;2024-03-22T12:20:49;17.00;99.90
3334;DHT22;1679;50.392;8.008;2024-03-22T12:23:15;17.00;99.90
3334;DHT22;1679;50.392;8.008;2024-03-22T12:25:40;16.90;99.90
3334;DHT22;1679;50.392;8.008;2024-03-22T12:28:06;16.70;99.90
3334;DHT22;1679;50.392;8.008;2024-03-22T12:30:31;16.60;99.90
3334;DHT22;1679;50.392;8.008;2024-03-22T12:32:58;16.40;99.90
3334;DHT22;1679;50.392;8.008;2024-03-22T12:35:24;16.20;99.90
3334;DHT22;1679;50.392;8.008;2024-03-22T12:37:52;16.20;99.90
3334;DHT22;1679;50.392;8.008;2024-03-22T12:40:18;16.30;99.90
3334;DHT22;1679;50.392;8.008;2024-03-22T12:42:44;16.30;99.90
3334;DHT22;1679;50.392;8.008;2024-03-22T12:45:09;16.20;99.90
3334;DHT22;1679;50.392;8.008;2024-03-22T12:47:35;16.20;99.90
3334;DHT22;1679;50.392;8.008;2024-03-22T12:50:00;16.10;99.90
3334;DHT22;1679;50.392;8.008;2024-03-22T12:52:26;16.10;99.90
3334;DHT22;1679;50.392;8.008;2024-03-22T12:54:51;16.00;99.90
3334;DHT22;1679;50.392;8.008;2024-03-22T12:57:17;16.00;99.90
3334;DHT22;1679;50.392;8.008;2024-03-22T12:59:43;16.00;99.90
3334;DHT22;1679;50.392;8.008;2024-03-22T13:02:08;16.00;99.90
3334;DHT22;1679;50.392;8.008;2024-03-22T13:04:34;16.00;99.90
3334;DHT22;1679;50.392;8.008;2024-03-22T13:07:00;16.00;99.90
3334;DHT22;1679;50.392;8.008;2024-03-22T13:09:26;16.00;99.90
3334;DHT22;1679;50.392;8.008;2024-03-22T13:11:51;16.00;99.90
3334;DHT22;1679;50.392;8.008;2024-03-22T13:14:18;16.10;99.90
3334;DHT22;1679;50.392;8.008;2024-03-22T13:16:46;16.00;99.90
3334;DHT22;1679;50.392;8.008;2024-03-22T13:19:11;16.00;99.90
3334;DHT22;1679;50.392;8.008;2024-03-22T13:21:39;16.00;99.90
3334;DHT22;1679;50.392;8.008;2024-03-22T13:24:05;16.00;99.90
3334;DHT22;1679;50.392;8.008;2024-03-22T13:26:32;16.00;99.90
3334;DHT22;1679;50.392;8.008;2024-03-22T13:28:58;15.90;99.90
3334;DHT22;1679;50.392;8.008;2024-03-22T13:31:24;15.90;99.90
3334;DHT22;1679;50.392;8.008;2024-03-22T13:33:50;15.90;99.90
3334;DHT22;1679;50.392;8.008;2024-03-22T13:36:15;15.90;99.90
3334;DHT22;1679;50.392;8.008;2024-03-22T13:38:42;15.80;99.90
3334;DHT22;1679;50.392;8.008;2024-03-22T13:41:08;15.80;99.90
3334;DHT22;1679;50.392;8.008;2024-03-22T13:43:34;15.80;99.90
3334;DHT22;1679;50.392;8.008;2024-03-22T13:46:04;15.70;99.90
3334;DHT22;1679;50.392;8.008;2024-03-22T13:48:30;15.70;99.90
3334;DHT22;1679;50.392;8.008;2024-03-22T13:50:55;15.60;99.90
3334;DHT22;1679;50.392;8.008;2024-03-22T13:53:21;15.60;99.90
3334;DHT22;1679;50.392;8.008;2024-03-22T13:55:54;15.60;99.90
3334;DHT22;1679;50.392;8.008;2024-03-22T13:58:20;15.80;99.90
3334;DHT22;1679;50.392;8.008;2024-03-22T14:00:47;15.90;99.90
3334;DHT22;1679;50.392;8.008;2024-03-22T14:03:14;16.00;99.90
3334;DHT22;1679;50.392;8.008;2024-03-22T14:05:40;16.10;99.90
3334;DHT22;1679;50.392;8.008;2024-03-22T14:08:06;16.30;99.90
3334;DHT22;1679;50.392;8.008;2024-03-22T14:10:33;16.30;99.90
3334;DHT22;1679;50.392;8.008;2024-03-22T14:12:59;16.30;99.90
3334;DHT22;1679;50.392;8.008;2024-03-22T14:15:24;16.20;99.90
3334;DHT22;1679;50.392;8.008;2024-03-22T14:17:52;16.10;99.90
3334;DHT22;1679;50.392;8.008;2024-03-22T14:20:18;16.00;99.90
3334;DHT22;1679;50.392;8.008;2024-03-22T14:22:44;15.80;99.90
3334;DHT22;1679;50.392;8.008;2024-03-22T14:25:11;15.80;99.90
3334;DHT22;1679;50.392;8.008;2024-03-22T14:27:36;15.80;99.90
3334;DHT22;1679;50.392;8.008;2024-03-22T14:30:05;15.80;99.90
3334;DHT22;1679;50.392;8.008;2024-03-22T14:32:33;15.90;99.90
3334;DHT22;1679;50.392;8.008;2024-03-22T14:34:59;16.10;99.90
3334;DHT22;1679;50.392;8.008;2024-03-22T14:37:26;16.30;99.90
3334;DHT22;1679;50.392;8.008;2024-03-22T14:39:53;16.50;99.90
3334;DHT22;1679;50.392;8.008;2024-03-22T14:42:18;16.60;99.90
3334;DHT22;1679;50.392;8.008;2024-03-22T14:44:44;16.60;99.90
3334;DHT22;1679;50.392;8.008;2024-03-22T14:47:10;16.50;99.90
3334;DHT22;1679;50.392;8.008;2024-03-22T14:49:36;16.50;99.90
3334;DHT22;1679;50.392;8.008;2024-03-22T14:52:01;16.40;99.90
3334;DHT22;1679;50.392;8.008;2024-03-22T14:54:27;16.30;99.90
3334;DHT22;1679;50.392;8.008;2024-03-22T14:56:52;16.30;99.90
3334;DHT22;1679;50.392;8.008;2024-03-22T14:59:20;16.40;99.90
3334;DHT22;1679;50.392;8.008;2024-03-22T15:01:45;16.30;99.90
3334;DHT22;1679;50.392;8.008;2024-03-22T15:04:11;16.30;99.90
3334;DHT22;1679;50.392;8.008;2024-03-22T15:06:38;16.30;99.90
3334;DHT22;1679;50.392;8.008;2024-03-22T15:09:04;16.30;99.90
3334;DHT22;1679;50.392;8.008;2024-03-22T15:11:36;16.30;99.90
3334;DHT22;1679;50.392;8.008;2024-03-22T15:14:02;16.30;99.90
3334;DHT22;1679;50.392;8.008;2024-03-22T15:16:29;16.30;99.90
3334;DHT22;1679;50.392;8.008;2024-03-22T15:18:55;16.30;99.90
3334;DHT22;1679;50.392;8.008;2024-03-22T15:21:21;16.40;99.90
3334;DHT22;1679;50.392;8.008;2024-03-22T15:23:47;16.30;99.90
3334;DHT22;1679;50.392;8.008;2024-03-22T15:26:13;16.20;99.90
3334;DHT22;1679;50.392;8.008;2024-03-22T15:28:39;16.20;99.90
3334;DHT22;1679;50.392;8.008;2024-03-22T15:31:06;16.20;99.90
3334;DHT22;1679;50.392;8.008;2024-03-22T15:33:32;16.10;99.90
3334;DHT22;1679;50.392;8.008;2024-03-22T15:35:58;16.10;99.90
3334;DHT22;1679;50.392;8.008;2024-03-22T15:38:25;16.10;99.90
3334;DHT22;1679;50.392;8.008;2024-03-22T15:40:51;16.10;99.90
3334;DHT22;1679;50.392;8.008;2024-03-22T15:43:17;16.20;99.90
3334;DHT22;1679;50.392;8.008;2024-03-22T15:45:44;16.30;99.90
3334;DHT22;1679;50.392;8.008;2024-03-22T15:48:10;16.30;99.90
3334;DHT22;1679;50.392;8.008;2024-03-22T15:50:37;16.40;99.90
3334;DHT22;1679;50.392;8.008;2024-03-22T15:53:03;16.40;99.90
3334;DHT22;1679;50.392;8.008;2024-03-22T15:55:29;16.30;99.90
3334;DHT22;1679;50.392;8.008;2024-03-22T15:57:55;16.30;99.90
3334;DHT22;1679;50.392;8.008;2024-03-22T16:00:24;16.30;99.90
3334;DHT22;1679;50.392;8.008;2024-03-22T16:02:51;16.20;99.90
3334;DHT22;1679;50.392;8.008;2024-03-22T16:05:17;16.10;99.90